sensor_id;sensor_type;location;lat;lon;timestamp;pressure;altitude;pressure_sealevel;temperature;humidity
30636;BME280;17400;52.392;9.750;2022-07-03T00:00:24;101122.06;;;22.20;57.65
30636;BME280;17400;52.392;9.750;2022-07-03T00:02:52;101121.75;;;22.17;57.38
30636;BME280;17400;52.392;9.750;2022-07-03T00:05:21;101104.00;;;22.02;59.27
30636;BME280;17400;52.392;9.750;2022-07-03T00:07:49;101104.78;;;21.92;59.85
30636;BME280;17400;52.392;9.750;2022-07-03T00:10:17;101109.75;;;21.95;59.02
30636;BME280;17400;52.392;9.750;2022-07-03T00:12:45;101104.78;;;21.92;59.62
30636;BME280;17400;52.392;9.750;2022-07-03T00:15:14;101103.06;;;21.86;59.88
30636;BME280;17400;52.392;9.750;2022-07-03T00:17:42;101102.78;;;21.88;60.15
30636;BME280;17400;52.392;9.750;2022-07-03T00:20:10;101104.16;;;21.85;59.50
30636;BME280;17400;52.392;9.750;2022-07-03T00:22:42;101099.19;;;21.82;60.10
30636;BME280;17400;52.392;9.750;2022-07-03T00:25:11;101108.22;;;21.77;59.71
30636;BME280;17400;52.392;9.750;2022-07-03T00:27:43;101094.94;;;21.69;61.00
30636;BME280;17400;52.392;9.750;2022-07-03T00:30:11;101100.66;;;21.62;61.40
30636;BME280;17400;52.392;9.750;2022-07-03T00:32:40;101100.97;;;21.66;60.95
30636;BME280;17400;52.392;9.750;2022-07-03T00:35:09;101101.97;;;21.55;62.11
30636;BME280;17400;52.392;9.750;2022-07-03T00:37:39;101100.34;;;21.59;61.72
30636;BME280;17400;52.392;9.750;2022-07-03T00:40:08;101103.38;;;21.57;61.84
30636;BME280;17400;52.392;9.750;2022-07-03T00:42:37;101093.69;;;21.55;62.16
30636;BME280;17400;52.392;9.750;2022-07-03T00:45:08;101096.91;;;21.46;62.97
30636;BME280;17400;52.392;9.750;2022-07-03T00:47:36;101094.69;;;21.43;62.95
30636;BME280;17400;52.392;9.750;2022-07-03T00:50:07;101091.09;;;21.43;63.45
30636;BME280;17400;52.392;9.750;2022-07-03T00:52:36;101088.06;;;21.44;62.54
30636;BME280;17400;52.392;9.750;2022-07-03T00:55:08;101085.91;;;21.46;62.94
30636;BME280;17400;52.392;9.750;2022-07-03T00:57:44;101090.31;;;21.47;62.18
30636;BME280;17400;52.392;9.750;2022-07-03T05:03:43;100986.03;;;20.69;67.24
30636;BME280;17400;52.392;9.750;2022-07-03T05:06:11;100991.56;;;20.74;66.65
30636;BME280;17400;52.392;9.750;2022-07-03T05:08:45;100981.75;;;20.78;66.95
30636;BME280;17400;52.392;9.750;2022-07-03T05:11:13;100991.91;;;20.78;66.29
30636;BME280;17400;52.392;9.750;2022-07-03T05:13:41;100994.16;;;20.86;66.32
30636;BME280;17400;52.392;9.750;2022-07-03T05:16:08;100992.28;;;20.87;65.95
30636;BME280;17400;52.392;9.750;2022-07-03T05:18:36;100985.16;;;20.91;65.70
30636;BME280;17400;52.392;9.750;2022-07-03T05:21:05;100991.53;;;20.96;65.78
30636;BME280;17400;52.392;9.750;2022-07-03T05:23:32;100995.41;;;21.01;65.46
30636;BME280;17400;52.392;9.750;2022-07-03T05:26:00;100989.63;;;20.97;65.90
30636;BME280;17400;52.392;9.750;2022-07-03T05:28:28;100994.03;;;20.98;65.96
30636;BME280;17400;52.392;9.750;2022-07-03T05:30:55;100986.41;;;21.05;65.82
30636;BME280;17400;52.392;9.750;2022-07-03T05:33:23;100992.50;;;21.12;65.79
30636;BME280;17400;52.392;9.750;2022-07-03T05:35:51;100996.97;;;21.19;65.38
30636;BME280;17400;52.392;9.750;2022-07-03T05:38:22;100991.53;;;21.24;64.81
30636;BME280;17400;52.392;9.750;2022-07-03T05:41:04;100997.28;;;21.22;64.91
30636;BME280;17400;52.392;9.750;2022-07-03T05:43:32;101003.09;;;21.26;64.94
30636;BME280;17400;52.392;9.750;2022-07-03T05:46:00;101008.53;;;21.16;65.49
30636;BME280;17400;52.392;9.750;2022-07-03T05:48:28;101009.91;;;21.18;65.87
30636;BME280;17400;52.392;9.750;2022-07-03T05:50:56;101010.53;;;21.25;66.66
30636;BME280;17400;52.392;9.750;2022-07-03T05:53:25;101014.50;;;21.40;66.04
30636;BME280;17400;52.392;9.750;2022-07-03T05:55:53;101012.09;;;21.49;64.69
30636;BME280;17400;52.392;9.750;2022-07-03T05:58:20;101017.34;;;21.50;64.68
30636;BME280;17400;52.392;9.750;2022-07-03T06:00:48;101012.50;;;21.62;64.57
30636;BME280;17400;52.392;9.750;2022-07-03T06:03:16;101007.63;;;21.75;64.48
30636;BME280;17400;52.392;9.750;2022-07-03T06:05:43;101015.72;;;21.92;63.72
30636;BME280;17400;52.392;9.750;2022-07-03T06:08:11;101023.56;;;22.10;62.12
30636;BME280;17400;52.392;9.750;2022-07-03T06:10:40;101009.94;;;22.36;60.99
30636;BME280;17400;52.392;9.750;2022-07-03T06:13:08;101021.88;;;22.57;59.87
30636;BME280;17400;52.392;9.750;2022-07-03T06:15:35;101023.28;;;22.60;58.51
30636;BME280;17400;52.392;9.750;2022-07-03T06:18:03;101025.19;;;22.59;58.47
30636;BME280;17400;52.392;9.750;2022-07-03T06:20:31;101025.47;;;22.58;58.74
30636;BME280;17400;52.392;9.750;2022-07-03T06:22:58;101021.34;;;22.60;59.12
30636;BME280;17400;52.392;9.750;2022-07-03T06:25:26;101028.22;;;22.58;58.92
30636;BME280;17400;52.392;9.750;2022-07-03T06:27:55;101028.84;;;22.70;60.27
30636;BME280;17400;52.392;9.750;2022-07-03T06:30:23;101028.31;;;22.78;58.94
30636;BME280;17400;52.392;9.750;2022-07-03T06:32:50;101027.75;;;22.82;59.27
30636;BME280;17400;52.392;9.750;2022-07-03T06:35:18;101020.59;;;22.86;59.16
30636;BME280;17400;52.392;9.750;2022-07-03T06:37:50;101029.97;;;22.90;58.88
30636;BME280;17400;52.392;9.750;2022-07-03T06:40:18;101028.63;;;22.98;58.61
30636;BME280;17400;52.392;9.750;2022-07-03T06:42:45;101036.63;;;23.04;58.08
30636;BME280;17400;52.392;9.750;2022-07-03T06:45:14;101025.63;;;23.15;57.92
30636;BME280;17400;52.392;9.750;2022-07-03T06:47:44;101025.94;;;23.18;57.31
30636;BME280;17400;52.392;9.750;2022-07-03T06:50:11;101028.69;;;23.23;57.25
30636;BME280;17400;52.392;9.750;2022-07-03T06:52:39;101029.25;;;23.31;56.81
30636;BME280;17400;52.392;9.750;2022-07-03T06:55:07;101030.91;;;23.37;55.71
30636;BME280;17400;52.392;9.750;2022-07-03T06:57:35;101025.41;;;23.47;55.24
30636;BME280;17400;52.392;9.750;2022-07-03T07:00:03;101030.66;;;23.54;54.47
30636;BME280;17400;52.392;9.750;2022-07-03T07:02:32;101020.13;;;23.61;54.08
30636;BME280;17400;52.392;9.750;2022-07-03T07:05:00;101017.06;;;23.57;53.72
30636;BME280;17400;52.392;9.750;2022-07-03T07:07:28;101022.88;;;23.61;53.58
30636;BME280;17400;52.392;9.750;2022-07-03T07:09:55;101017.38;;;23.66;52.82
30636;BME280;17400;52.392;9.750;2022-07-03T07:12:23;101020.94;;;23.67;52.10
30636;BME280;17400;52.392;9.750;2022-07-03T07:14:55;101020.94;;;23.67;51.42
30636;BME280;17400;52.392;9.750;2022-07-03T07:17:23;101019.59;;;23.59;52.26
30636;BME280;17400;52.392;9.750;2022-07-03T07:19:54;101015.16;;;23.63;52.31
30636;BME280;17400;52.392;9.750;2022-07-03T07:22:22;101023.16;;;23.54;52.92
30636;BME280;17400;52.392;9.750;2022-07-03T07:24:52;101020.69;;;23.48;53.14
30636;BME280;17400;52.392;9.750;2022-07-03T07:27:20;101016.81;;;23.59;53.01
30636;BME280;17400;52.392;9.750;2022-07-03T07:29:47;101018.44;;;23.75;52.04
30636;BME280;17400;52.392;9.750;2022-07-03T07:32:15;101015.69;;;23.91;51.65
30636;BME280;17400;52.392;9.750;2022-07-03T07:34:43;101027.84;;;24.00;49.60
30636;BME280;17400;52.392;9.750;2022-07-03T07:37:12;101023.13;;;24.06;49.04
30636;BME280;17400;52.392;9.750;2022-07-03T07:39:39;101020.34;;;24.16;49.36
30636;BME280;17400;52.392;9.750;2022-07-03T07:42:08;101027.22;;;24.29;49.39
30636;BME280;17400;52.392;9.750;2022-07-03T07:44:35;101032.69;;;24.39;49.21
30636;BME280;17400;52.392;9.750;2022-07-03T07:47:03;101025.47;;;24.43;48.78
30636;BME280;17400;52.392;9.750;2022-07-03T07:49:31;101030.44;;;24.52;48.44
30636;BME280;17400;52.392;9.750;2022-07-03T07:51:59;101026.00;;;24.56;48.72
30636;BME280;17400;52.392;9.750;2022-07-03T07:54:29;101042.66;;;24.35;49.38
30636;BME280;17400;52.392;9.750;2022-07-03T07:56:57;101039.13;;;24.19;49.77
30636;BME280;17400;52.392;9.750;2022-07-03T07:59:25;101040.81;;;24.15;49.02
30636;BME280;17400;52.392;9.750;2022-07-03T08:01:53;101037.44;;;24.23;49.82
30636;BME280;17400;52.392;9.750;2022-07-03T08:04:38;101047.94;;;24.32;48.78
30636;BME280;17400;52.392;9.750;2022-07-03T08:07:23;101045.41;;;24.45;48.53
30636;BME280;17400;52.392;9.750;2022-07-03T08:09:52;101043.97;;;24.64;48.58
30636;BME280;17400;52.392;9.750;2022-07-03T08:12:20;101042.03;;;24.54;48.95
30636;BME280;17400;52.392;9.750;2022-07-03T08:14:48;101047.59;;;24.49;49.44
30636;BME280;17400;52.392;9.750;2022-07-03T08:17:15;101043.16;;;24.53;50.34
30636;BME280;17400;52.392;9.750;2022-07-03T08:19:44;101033.72;;;24.64;49.89
30636;BME280;17400;52.392;9.750;2022-07-03T08:22:12;101041.13;;;24.74;49.21
30636;BME280;17400;52.392;9.750;2022-07-03T08:24:40;101040.91;;;24.70;47.71
30636;BME280;17400;52.392;9.750;2022-07-03T08:27:11;101041.13;;;24.79;47.84
30636;BME280;17400;52.392;9.750;2022-07-03T08:29:40;101037.50;;;24.84;47.19
30636;BME280;17400;52.392;9.750;2022-07-03T08:32:08;101040.91;;;24.70;46.47
30636;BME280;17400;52.392;9.750;2022-07-03T08:34:35;101050.91;;;24.66;46.52
30636;BME280;17400;52.392;9.750;2022-07-03T08:37:03;101048.13;;;24.61;46.99
30636;BME280;17400;52.392;9.750;2022-07-03T08:39:31;101043.69;;;24.55;47.71
30636;BME280;17400;52.392;9.750;2022-07-03T08:41:59;101039.28;;;24.49;48.13
30636;BME280;17400;52.392;9.750;2022-07-03T08:44:28;101040.97;;;24.44;48.85
30636;BME280;17400;52.392;9.750;2022-07-03T08:46:59;101043.13;;;24.63;48.19
30636;BME280;17400;52.392;9.750;2022-07-03T08:49:27;101039.16;;;24.85;47.97
30636;BME280;17400;52.392;9.750;2022-07-03T08:51:56;101046.28;;;24.96;46.92
30636;BME280;17400;52.392;9.750;2022-07-03T08:54:25;101045.97;;;25.03;46.45
30636;BME280;17400;52.392;9.750;2022-07-03T08:56:53;101049.59;;;25.03;46.18
30636;BME280;17400;52.392;9.750;2022-07-03T08:59:23;101039.88;;;25.06;45.96
30636;BME280;17400;52.392;9.750;2022-07-03T09:01:54;101046.50;;;25.10;45.76
30636;BME280;17400;52.392;9.750;2022-07-03T09:04:22;101044.28;;;25.07;45.07
30636;BME280;17400;52.392;9.750;2022-07-03T09:06:50;101044.31;;;25.02;45.97
30636;BME280;17400;52.392;9.750;2022-07-03T09:09:22;101046.22;;;25.06;45.42
30636;BME280;17400;52.392;9.750;2022-07-03T09:11:50;101048.38;;;25.15;45.51
30636;BME280;17400;52.392;9.750;2022-07-03T09:14:18;101034.50;;;25.20;45.38
30636;BME280;17400;52.392;9.750;2022-07-03T09:16:46;101035.56;;;25.24;45.05
30636;BME280;17400;52.392;9.750;2022-07-03T09:22:02;101037.47;;;25.34;43.54
30636;BME280;17400;52.392;9.750;2022-07-03T09:24:32;101031.38;;;25.32;42.56
30636;BME280;17400;52.392;9.750;2022-07-03T09:27:00;101035.84;;;25.27;43.23
30636;BME280;17400;52.392;9.750;2022-07-03T09:29:27;101027.81;;;25.26;43.52
30636;BME280;17400;52.392;9.750;2022-07-03T09:31:55;101030.28;;;25.27;43.97
30636;BME280;17400;52.392;9.750;2022-07-03T09:34:24;101030.25;;;25.33;43.86
30636;BME280;17400;52.392;9.750;2022-07-03T09:36:53;101030.25;;;25.33;42.82
30636;BME280;17400;52.392;9.750;2022-07-03T09:39:21;101026.09;;;25.35;42.75
30636;BME280;17400;52.392;9.750;2022-07-03T09:41:51;101027.78;;;25.36;42.43
30636;BME280;17400;52.392;9.750;2022-07-03T09:44:31;101030.78;;;25.40;42.66
30636;BME280;17400;52.392;9.750;2022-07-03T09:47:07;101034.06;;;25.47;41.89
30636;BME280;17400;52.392;9.750;2022-07-03T09:49:52;101028.50;;;25.47;41.42
30636;BME280;17400;52.392;9.750;2022-07-03T09:52:41;101027.66;;;25.47;41.02
30636;BME280;17400;52.392;9.750;2022-07-03T09:55:15;101034.28;;;25.51;41.12
30636;BME280;17400;52.392;9.750;2022-07-03T09:57:57;101032.31;;;25.56;40.71
30636;BME280;17400;52.392;9.750;2022-07-03T10:00:26;101030.00;;;25.64;41.11
30636;BME280;17400;52.392;9.750;2022-07-03T10:02:59;101030.22;;;25.72;40.50
30636;BME280;17400;52.392;9.750;2022-07-03T10:05:31;101033.25;;;25.76;40.45
30636;BME280;17400;52.392;9.750;2022-07-03T10:08:00;101030.47;;;25.76;40.85
30636;BME280;17400;52.392;9.750;2022-07-03T10:10:30;101031.88;;;25.73;40.94
30636;BME280;17400;52.392;9.750;2022-07-03T10:12:58;101027.75;;;25.71;40.77
30636;BME280;17400;52.392;9.750;2022-07-03T10:15:28;101024.38;;;25.74;40.11
30636;BME280;17400;52.392;9.750;2022-07-03T10:17:58;101019.38;;;25.76;40.89
30636;BME280;17400;52.392;9.750;2022-07-03T10:20:27;101027.41;;;25.77;40.45
30636;BME280;17400;52.392;9.750;2022-07-03T10:22:57;101031.28;;;25.76;40.26
30636;BME280;17400;52.392;9.750;2022-07-03T10:25:25;101025.19;;;25.74;40.15
30636;BME280;17400;52.392;9.750;2022-07-03T10:27:53;101028.25;;;25.73;40.85
30636;BME280;17400;52.392;9.750;2022-07-03T10:30:23;101014.09;;;25.74;40.68
30636;BME280;17400;52.392;9.750;2022-07-03T10:32:52;101019.94;;;25.73;40.57
30636;BME280;17400;52.392;9.750;2022-07-03T10:35:21;101021.91;;;25.72;39.87
30636;BME280;17400;52.392;9.750;2022-07-03T10:38:07;101021.56;;;25.79;40.06
30636;BME280;17400;52.392;9.750;2022-07-03T10:40:42;101019.56;;;25.85;40.21
30636;BME280;17400;52.392;9.750;2022-07-03T10:43:31;101018.91;;;25.93;40.07
30636;BME280;17400;52.392;9.750;2022-07-03T10:46:21;101022.22;;;25.95;39.17
30636;BME280;17400;52.392;9.750;2022-07-03T10:48:59;101015.06;;;25.89;38.54
30636;BME280;17400;52.392;9.750;2022-07-03T10:51:29;101018.91;;;25.93;39.45
30636;BME280;17400;52.392;9.750;2022-07-03T10:54:15;101010.53;;;25.98;38.58
30636;BME280;17400;52.392;9.750;2022-07-03T10:57:06;101015.19;;;26.08;39.10
30636;BME280;17400;52.392;9.750;2022-07-03T10:59:56;101007.63;;;26.14;39.13
30636;BME280;17400;52.392;9.750;2022-07-03T11:02:27;101018.19;;;26.11;39.22
30636;BME280;17400;52.392;9.750;2022-07-03T11:05:10;101014.84;;;26.15;39.16
30636;BME280;17400;52.392;9.750;2022-07-03T11:07:44;101011.22;;;26.14;39.77
30636;BME280;17400;52.392;9.750;2022-07-03T11:10:33;101012.06;;;26.15;39.50
30636;BME280;17400;52.392;9.750;2022-07-03T11:13:03;100998.19;;;26.15;39.46
30636;BME280;17400;52.392;9.750;2022-07-03T11:15:32;100999.19;;;26.24;39.83
30636;BME280;17400;52.392;9.750;2022-07-03T11:18:17;100997.41;;;26.33;40.34
30636;BME280;17400;52.392;9.750;2022-07-03T11:24:22;101003.84;;;26.28;40.00
30636;BME280;17400;52.392;9.750;2022-07-03T11:27:16;101007.34;;;26.39;40.09
30636;BME280;17400;52.392;9.750;2022-07-03T11:29:49;100990.31;;;26.46;39.96
30636;BME280;17400;52.392;9.750;2022-07-03T11:32:43;100989.94;;;26.53;39.56
30636;BME280;17400;52.392;9.750;2022-07-03T11:35:46;100991.97;;;26.66;39.37
30636;BME280;17400;52.392;9.750;2022-07-03T11:38:16;100989.66;;;26.73;38.72
30636;BME280;17400;52.392;9.750;2022-07-03T11:40:45;100973.16;;;26.82;38.83
30636;BME280;17400;52.392;9.750;2022-07-03T11:43:16;100981.03;;;26.94;39.01
30636;BME280;17400;52.392;9.750;2022-07-03T11:45:45;100988.06;;;27.05;38.15
30636;BME280;17400;52.392;9.750;2022-07-03T11:48:14;100986.25;;;27.15;38.29
30636;BME280;17400;52.392;9.750;2022-07-03T11:50:44;100981.28;;;27.50;37.52
30636;BME280;17400;52.392;9.750;2022-07-03T11:53:23;100979.53;;;27.54;37.02
30636;BME280;17400;52.392;9.750;2022-07-03T11:55:53;100983.34;;;27.58;37.07
30636;BME280;17400;52.392;9.750;2022-07-03T11:58:23;100987.50;;;27.74;37.14
30636;BME280;17400;52.392;9.750;2022-07-03T12:00:52;100988.94;;;27.72;36.15
30636;BME280;17400;52.392;9.750;2022-07-03T12:03:22;100987.59;;;27.69;36.41
30636;BME280;17400;52.392;9.750;2022-07-03T12:05:57;100980.50;;;27.77;35.55
30636;BME280;17400;52.392;9.750;2022-07-03T12:08:30;100975.03;;;27.86;36.70
30636;BME280;17400;52.392;9.750;2022-07-03T12:11:00;100983.41;;;28.14;35.32
30636;BME280;17400;52.392;9.750;2022-07-03T12:13:30;100973.94;;;28.29;35.79
30636;BME280;17400;52.392;9.750;2022-07-03T12:16:07;100976.09;;;28.82;34.96
30636;BME280;17400;52.392;9.750;2022-07-03T12:18:46;100979.88;;;29.00;34.11
30636;BME280;17400;52.392;9.750;2022-07-03T12:21:17;100975.66;;;29.12;33.56
30636;BME280;17400;52.392;9.750;2022-07-03T12:23:49;100969.59;;;29.09;33.84
30636;BME280;17400;52.392;9.750;2022-07-03T12:26:44;100976.06;;;29.41;32.90
30636;BME280;17400;52.392;9.750;2022-07-03T12:29:31;100972.09;;;29.65;32.01
30636;BME280;17400;52.392;9.750;2022-07-03T12:32:26;100974.34;;;29.54;31.70
30636;BME280;17400;52.392;9.750;2022-07-03T12:34:54;100964.72;;;29.38;31.70
30636;BME280;17400;52.392;9.750;2022-07-03T12:37:31;100960.81;;;28.94;32.59
30636;BME280;17400;52.392;9.750;2022-07-03T12:39:59;100958.63;;;29.13;32.46
30636;BME280;17400;52.392;9.750;2022-07-03T12:42:27;100956.03;;;29.39;32.07
30636;BME280;17400;52.392;9.750;2022-07-03T12:44:57;100954.72;;;29.68;31.31
30636;BME280;17400;52.392;9.750;2022-07-03T12:47:27;100957.78;;;29.58;31.80
30636;BME280;17400;52.392;9.750;2022-07-03T12:49:56;100963.47;;;29.44;31.61
30636;BME280;17400;52.392;9.750;2022-07-03T12:52:25;100965.00;;;29.59;31.44
30636;BME280;17400;52.392;9.750;2022-07-03T12:54:53;100955.56;;;29.78;30.71
30636;BME280;17400;52.392;9.750;2022-07-03T12:57:22;100953.97;;;29.45;31.55
30636;BME280;17400;52.392;9.750;2022-07-03T13:00:10;100948.19;;;29.73;31.22
30636;BME280;17400;52.392;9.750;2022-07-03T13:02:42;100945.72;;;30.12;30.59
30636;BME280;17400;52.392;9.750;2022-07-03T13:05:14;100937.00;;;30.13;30.47
30636;BME280;17400;52.392;9.750;2022-07-03T13:07:43;100932.78;;;30.24;30.36
30636;BME280;17400;52.392;9.750;2022-07-03T13:10:11;100934.19;;;30.04;30.53
30636;BME280;17400;52.392;9.750;2022-07-03T13:12:50;100938.72;;;29.51;30.60
30636;BME280;17400;52.392;9.750;2022-07-03T13:15:20;100946.00;;;29.16;31.42
30636;BME280;17400;52.392;9.750;2022-07-03T13:18:00;100933.56;;;29.36;30.97
30636;BME280;17400;52.392;9.750;2022-07-03T13:20:30;100931.75;;;29.71;31.59
30636;BME280;17400;52.392;9.750;2022-07-03T13:22:59;100935.34;;;30.03;31.06
30636;BME280;17400;52.392;9.750;2022-07-03T13:25:27;100926.16;;;30.20;29.69
30636;BME280;17400;52.392;9.750;2022-07-03T13:28:03;100935.09;;;30.31;30.47
30636;BME280;17400;52.392;9.750;2022-07-03T13:30:33;100921.47;;;30.56;29.85
30636;BME280;17400;52.392;9.750;2022-07-03T13:33:01;100934.47;;;30.61;29.26
30636;BME280;17400;52.392;9.750;2022-07-03T13:35:30;100914.72;;;30.74;28.90
30636;BME280;17400;52.392;9.750;2022-07-03T13:37:57;100919.34;;;30.79;28.28
30636;BME280;17400;52.392;9.750;2022-07-03T13:40:25;100910.78;;;31.02;28.05
30636;BME280;17400;52.392;9.750;2022-07-03T13:42:53;100923.59;;;31.12;27.92
30636;BME280;17400;52.392;9.750;2022-07-03T13:45:20;100922.13;;;31.14;28.10
30636;BME280;17400;52.392;9.750;2022-07-03T13:47:49;100914.16;;;31.34;27.77
30636;BME280;17400;52.392;9.750;2022-07-03T13:50:17;100917.25;;;31.50;27.78
30636;BME280;17400;52.392;9.750;2022-07-03T13:52:45;100921.69;;;31.51;27.75
30636;BME280;17400;52.392;9.750;2022-07-03T13:55:16;100924.78;;;30.84;28.07
30636;BME280;17400;52.392;9.750;2022-07-03T13:57:44;100928.53;;;31.15;28.17
30636;BME280;17400;52.392;9.750;2022-07-03T14:00:12;100923.16;;;31.48;27.51
30636;BME280;17400;52.392;9.750;2022-07-03T14:02:42;100922.22;;;31.35;27.81
30636;BME280;17400;52.392;9.750;2022-07-03T14:05:13;100927.41;;;30.81;28.70
30636;BME280;17400;52.392;9.750;2022-07-03T14:07:40;100927.22;;;30.51;29.03
30636;BME280;17400;52.392;9.750;2022-07-03T14:10:08;100927.84;;;30.30;28.60
30636;BME280;17400;52.392;9.750;2022-07-03T14:12:36;100922.38;;;30.07;28.76
30636;BME280;17400;52.392;9.750;2022-07-03T14:15:04;100920.84;;;29.92;28.83
30636;BME280;17400;52.392;9.750;2022-07-03T14:17:32;100916.88;;;29.85;29.16
30636;BME280;17400;52.392;9.750;2022-07-03T14:20:02;100918.63;;;30.21;29.03
30636;BME280;17400;52.392;9.750;2022-07-03T14:22:31;100920.59;;;30.29;28.77
30636;BME280;17400;52.392;9.750;2022-07-03T14:24:58;100908.31;;;30.91;28.93
30636;BME280;17400;52.392;9.750;2022-07-03T14:27:26;100898.69;;;31.36;28.13
30636;BME280;17400;52.392;9.750;2022-07-03T14:30:12;100907.16;;;31.01;27.88
30636;BME280;17400;52.392;9.750;2022-07-03T14:32:57;100907.69;;;30.68;28.85
30636;BME280;17400;52.392;9.750;2022-07-03T14:35:25;100906.19;;;30.97;28.36
30636;BME280;17400;52.392;9.750;2022-07-03T14:37:54;100893.28;;;31.31;27.75
30636;BME280;17400;52.392;9.750;2022-07-03T14:40:22;100900.75;;;30.83;28.22
30636;BME280;17400;52.392;9.750;2022-07-03T14:42:50;100895.34;;;30.43;28.71
30636;BME280;17400;52.392;9.750;2022-07-03T14:45:18;100899.63;;;30.58;28.42
30636;BME280;17400;52.392;9.750;2022-07-03T14:47:45;100888.25;;;31.07;27.72
30636;BME280;17400;52.392;9.750;2022-07-03T14:50:13;100896.97;;;30.97;27.96
30636;BME280;17400;52.392;9.750;2022-07-03T14:52:41;100893.72;;;30.60;28.10
30636;BME280;17400;52.392;9.750;2022-07-03T14:55:10;100891.09;;;30.63;28.50
30636;BME280;17400;52.392;9.750;2022-07-03T14:57:48;100891.25;;;30.84;28.26
30636;BME280;17400;52.392;9.750;2022-07-03T15:00:19;100886.59;;;31.15;28.18
30636;BME280;17400;52.392;9.750;2022-07-03T15:02:49;100894.84;;;30.85;28.02
30636;BME280;17400;52.392;9.750;2022-07-03T15:05:21;100891.41;;;30.53;28.93
30636;BME280;17400;52.392;9.750;2022-07-03T15:07:59;100886.63;;;30.53;28.99
30636;BME280;17400;52.392;9.750;2022-07-03T15:10:33;100892.88;;;30.77;29.11
30636;BME280;17400;52.392;9.750;2022-07-03T15:13:03;100888.06;;;31.03;28.00
30636;BME280;17400;52.392;9.750;2022-07-03T15:15:32;100889.88;;;30.99;28.17
30636;BME280;17400;52.392;9.750;2022-07-03T15:18:01;100887.81;;;31.44;27.30
30636;BME280;17400;52.392;9.750;2022-07-03T15:20:31;100877.34;;;31.70;27.48
30636;BME280;17400;52.392;9.750;2022-07-03T15:23:01;100878.28;;;31.83;27.20
30636;BME280;17400;52.392;9.750;2022-07-03T15:25:33;100868.09;;;31.79;27.41
30636;BME280;17400;52.392;9.750;2022-07-03T15:28:01;100877.16;;;31.37;27.80
30636;BME280;17400;52.392;9.750;2022-07-03T15:30:29;100874.22;;;31.33;27.75
30636;BME280;17400;52.392;9.750;2022-07-03T15:32:57;100882.09;;;31.79;27.74
30636;BME280;17400;52.392;9.750;2022-07-03T15:35:25;100865.28;;;32.09;26.81
30636;BME280;17400;52.392;9.750;2022-07-03T15:38:01;100872.69;;;32.34;26.96
30636;BME280;17400;52.392;9.750;2022-07-03T15:40:35;100873.00;;;31.82;27.19
30636;BME280;17400;52.392;9.750;2022-07-03T15:43:25;100866.69;;;31.25;27.63
30636;BME280;17400;52.392;9.750;2022-07-03T15:46:02;100869.66;;;31.02;28.18
30636;BME280;17400;52.392;9.750;2022-07-03T15:48:34;100883.16;;;31.00;28.15
30636;BME280;17400;52.392;9.750;2022-07-03T15:51:15;100880.88;;;30.94;28.39
30636;BME280;17400;52.392;9.750;2022-07-03T15:53:49;100880.56;;;30.69;28.54
30636;BME280;17400;52.392;9.750;2022-07-03T15:56:21;100883.19;;;30.65;29.23
30636;BME280;17400;52.392;9.750;2022-07-03T15:58:56;100882.19;;;30.61;29.06
30636;BME280;17400;52.392;9.750;2022-07-03T16:01:28;100883.31;;;30.42;29.23
30636;BME280;17400;52.392;9.750;2022-07-03T16:04:17;100882.16;;;30.17;28.85
30636;BME280;17400;52.392;9.750;2022-07-03T16:06:46;100885.59;;;30.05;29.15
30636;BME280;17400;52.392;9.750;2022-07-03T16:09:16;100880.50;;;29.99;29.21
30636;BME280;17400;52.392;9.750;2022-07-03T16:11:46;100878.63;;;29.85;28.88
30636;BME280;17400;52.392;9.750;2022-07-03T16:14:14;100881.53;;;29.71;29.52
30636;BME280;17400;52.392;9.750;2022-07-03T16:16:43;100883.63;;;29.57;29.88
30636;BME280;17400;52.392;9.750;2022-07-03T16:19:12;100879.66;;;29.49;29.67
30636;BME280;17400;52.392;9.750;2022-07-03T16:21:40;100882.53;;;29.35;30.11
30636;BME280;17400;52.392;9.750;2022-07-03T16:24:08;100877.13;;;29.07;30.37
30636;BME280;17400;52.392;9.750;2022-07-03T16:26:37;100883.69;;;29.12;30.41
30636;BME280;17400;52.392;9.750;2022-07-03T16:29:07;100873.19;;;29.08;30.33
30636;BME280;17400;52.392;9.750;2022-07-03T16:31:39;100872.06;;;29.09;30.93
30636;BME280;17400;52.392;9.750;2022-07-03T16:34:15;100878.38;;;29.01;31.15
30636;BME280;17400;52.392;9.750;2022-07-03T16:36:47;100885.25;;;28.95;30.66
30636;BME280;17400;52.392;9.750;2022-07-03T16:39:22;100878.34;;;28.92;31.29
30636;BME280;17400;52.392;9.750;2022-07-03T16:41:52;100869.78;;;28.89;31.20
30636;BME280;17400;52.392;9.750;2022-07-03T16:44:23;100868.59;;;28.81;31.54
30636;BME280;17400;52.392;9.750;2022-07-03T16:46:58;100871.44;;;28.67;31.87
30636;BME280;17400;52.392;9.750;2022-07-03T16:49:30;100879.69;;;28.58;33.63
30636;BME280;17400;52.392;9.750;2022-07-03T16:52:02;100884.56;;;28.53;34.18
30636;BME280;17400;52.392;9.750;2022-07-03T16:54:33;100877.16;;;28.48;34.42
30636;BME280;17400;52.392;9.750;2022-07-03T16:57:04;100873.66;;;28.42;34.45
30636;BME280;17400;52.392;9.750;2022-07-03T16:59:37;100885.44;;;28.39;34.84
30636;BME280;17400;52.392;9.750;2022-07-03T17:02:14;100890.81;;;28.36;34.72
30636;BME280;17400;52.392;9.750;2022-07-03T17:04:45;100880.91;;;28.30;34.91
30636;BME280;17400;52.392;9.750;2022-07-03T17:07:16;100894.50;;;28.31;35.23
30636;BME280;17400;52.392;9.750;2022-07-03T17:09:46;100896.00;;;28.29;35.51
30636;BME280;17400;52.392;9.750;2022-07-03T17:12:14;100893.75;;;28.17;36.46
30636;BME280;17400;52.392;9.750;2022-07-03T17:14:45;100894.34;;;28.14;36.33
30636;BME280;17400;52.392;9.750;2022-07-03T17:17:15;100908.38;;;28.08;36.96
30636;BME280;17400;52.392;9.750;2022-07-03T17:19:52;100894.56;;;28.03;36.65